Time;durP1;ratioP1;P1;durP2;ratioP2;P2;SDS_P1;SDS_P2;PMS_P1;PMS_P2;Temp;Humidity;BMP_temperature;BMP_pressure;BME280_temperature;BME280_humidity;BME280_pressure;Samples;Min_cycle;Max_cycle;Signal;HPM_P1;HPM_P2
2022/02/16 00:00:18;;;;;;;42.70;21.10;;;5.80;99.90;;;;;;4430388;32;20205;-72
2022/02/16 00:02:45;;;;;;;45.83;22.10;;;5.80;99.90;;;;;;4424551;32;20214;-72
2022/02/16 00:05:13;;;;;;;40.57;21.53;;;5.80;99.90;;;;;;4426248;32;20241;-72
2022/02/16 00:07:40;;;;;;;42.27;21.33;;;5.80;99.90;;;;;;4425302;32;20186;-72
2022/02/16 00:10:13;;;;;;;40.53;20.60;;;5.70;99.90;;;;;;4427025;32;20181;-72
2022/02/16 00:12:41;;;;;;;44.83;21.23;;;5.70;99.90;;;;;;4425285;32;20504;-72
2022/02/16 00:15:10;;;;;;;41.93;20.83;;;5.80;99.90;;;;;;4424517;32;20196;-72
2022/02/16 00:17:37;;;;;;;41.90;22.00;;;5.80;99.90;;;;;;4425789;32;20187;-72
2022/02/16 00:20:05;;;;;;;44.20;20.90;;;5.80;99.90;;;;;;4424162;32;20184;-71
2022/02/16 00:22:32;;;;;;;40.87;20.77;;;5.70;99.90;;;;;;4424815;32;20204;-72
2022/02/16 00:24:59;;;;;;;40.73;21.10;;;5.80;99.90;;;;;;4424356;32;20181;-72
2022/02/16 00:27:26;;;;;;;46.27;20.67;;;5.80;99.90;;;;;;4424528;32;20224;-72
2022/02/16 00:29:53;;;;;;;42.50;20.83;;;5.70;99.90;;;;;;4424235;32;20239;-72
2022/02/16 00:32:19;;;;;;;43.63;20.67;;;5.70;99.90;;;;;;4425183;32;20193;-72
2022/02/16 00:34:46;;;;;;;39.40;20.07;;;5.80;99.90;;;;;;4424558;32;20189;-72
2022/02/16 00:37:13;;;;;;;42.70;20.37;;;5.70;99.90;;;;;;4425751;32;20215;-72
2022/02/16 00:39:41;;;;;;;41.87;20.60;;;5.80;99.90;;;;;;4425534;32;20167;-72
2022/02/16 00:42:08;;;;;;;40.93;20.47;;;5.80;99.90;;;;;;4425459;32;20192;-72
2022/02/16 00:44:34;;;;;;;42.93;20.87;;;5.80;99.90;;;;;;4426929;32;20168;-72
2022/02/16 00:47:02;;;;;;;40.73;20.00;;;5.80;99.90;;;;;;4424304;32;20197;-72
2022/02/16 00:49:29;;;;;;;39.37;20.43;;;5.90;99.90;;;;;;4425495;32;20171;-72
2022/02/16 00:51:55;;;;;;;38.50;19.93;;;5.90;99.90;;;;;;4425077;32;20145;-72
2022/02/16 00:54:22;;;;;;;38.57;19.73;;;5.90;99.90;;;;;;4424621;32;20229;-72
2022/02/16 00:56:49;;;;;;;40.90;20.50;;;5.90;99.90;;;;;;4426881;32;20233;-72
2022/02/16 00:59:16;;;;;;;39.40;19.80;;;5.90;99.90;;;;;;4426856;32;20162;-72
2022/02/16 01:01:43;;;;;;;42.73;21.23;;;5.90;99.90;;;;;;4423773;32;20181;-72
2022/02/16 01:04:10;;;;;;;41.33;20.83;;;5.90;99.90;;;;;;4424739;32;20187;-72
2022/02/16 01:06:37;;;;;;;44.00;21.37;;;5.90;99.90;;;;;;4425237;32;20188;-72
2022/02/16 01:09:04;;;;;;;39.40;20.23;;;5.90;99.90;;;;;;4423875;32;20226;-72
2022/02/16 01:11:31;;;;;;;38.73;19.80;;;5.90;99.90;;;;;;4425080;32;20188;-72
2022/02/16 01:13:58;;;;;;;41.10;20.47;;;5.80;99.90;;;;;;4425068;32;20185;-72
2022/02/16 01:16:25;;;;;;;41.63;21.47;;;5.80;99.90;;;;;;4425639;32;20542;-72
2022/02/16 01:18:51;;;;;;;41.27;20.37;;;5.80;99.90;;;;;;4423801;32;20241;-72
2022/02/16 01:21:18;;;;;;;40.67;21.20;;;5.80;99.90;;;;;;4412106;32;20206;-72
2022/02/16 01:23:45;;;;;;;40.77;20.07;;;5.70;99.90;;;;;;4424953;32;20165;-72
2022/02/16 01:26:12;;;;;;;41.47;21.63;;;5.80;99.90;;;;;;4423552;32;20453;-72
2022/02/16 01:28:39;;;;;;;41.00;21.50;;;5.70;99.90;;;;;;4424981;32;20169;-72
2022/02/16 01:31:06;;;;;;;40.13;21.40;;;5.70;99.90;;;;;;4423214;32;20180;-72
2022/02/16 01:33:34;;;;;;;38.43;20.17;;;5.70;99.90;;;;;;4423939;32;20208;-72
2022/02/16 01:36:01;;;;;;;39.10;20.73;;;5.70;99.90;;;;;;4424313;32;20542;-72
2022/02/16 01:38:28;;;;;;;45.23;21.03;;;5.70;99.90;;;;;;4425547;32;20454;-72
2022/02/16 01:40:55;;;;;;;40.87;21.43;;;5.70;99.90;;;;;;4423206;32;20265;-72
2022/02/16 01:43:22;;;;;;;44.57;21.83;;;5.70;99.90;;;;;;4426938;32;20202;-72
2022/02/16 01:45:49;;;;;;;41.57;20.90;;;5.60;99.90;;;;;;4425980;32;20171;-72
2022/02/16 01:48:16;;;;;;;42.83;21.33;;;5.60;99.90;;;;;;4439659;32;20158;-72
2022/02/16 01:50:43;;;;;;;40.67;20.57;;;5.60;99.90;;;;;;4426295;32;20574;-72
2022/02/16 01:53:10;;;;;;;44.50;20.73;;;5.50;99.90;;;;;;4427209;32;20540;-72
2022/02/16 01:55:38;;;;;;;42.67;21.77;;;5.50;99.90;;;;;;4425357;32;20177;-72
2022/02/16 01:58:07;;;;;;;37.43;20.90;;;5.40;99.90;;;;;;4426197;32;20217;-72
2022/02/16 02:00:34;;;;;;;40.70;20.60;;;5.40;99.90;;;;;;4439674;32;20257;-72
2022/02/16 02:03:01;;;;;;;44.43;22.07;;;5.40;99.90;;;;;;4426075;32;20179;-72
2022/02/16 02:05:29;;;;;;;42.07;21.47;;;5.30;99.90;;;;;;4425700;32;20223;-72
2022/02/16 02:07:56;;;;;;;41.67;21.13;;;5.30;99.90;;;;;;4439791;32;20370;-72
2022/02/16 02:10:23;;;;;;;44.97;22.80;;;5.20;99.90;;;;;;4425795;32;20190;-72
2022/02/16 02:12:53;;;;;;;44.73;22.57;;;5.20;99.90;;;;;;4439783;32;20436;-72
2022/02/16 02:15:22;;;;;;;45.20;22.90;;;5.10;99.90;;;;;;4425643;32;20212;-72
2022/02/16 02:17:50;;;;;;;48.33;23.73;;;5.00;99.90;;;;;;4427607;32;20201;-72
2022/02/16 02:20:23;;;;;;;44.17;23.30;;;4.90;99.90;;;;;;4439474;32;20189;-72
2022/02/16 02:22:54;;;;;;;46.20;23.63;;;4.90;99.90;;;;;;4425519;32;20178;-72
2022/02/16 02:25:21;;;;;;;46.77;22.63;;;4.90;99.90;;;;;;4440208;32;20429;-72
2022/02/16 02:27:48;;;;;;;45.30;23.80;;;4.80;99.90;;;;;;4425322;32;20551;-72
2022/02/16 02:30:15;;;;;;;49.10;23.77;;;4.70;99.90;;;;;;4426835;32;20233;-72
2022/02/16 02:32:44;;;;;;;51.37;24.43;;;4.70;99.90;;;;;;4426130;32;20187;-72
2022/02/16 02:35:14;;;;;;;52.43;25.53;;;4.70;99.90;;;;;;4425155;32;20166;-72
2022/02/16 02:37:42;;;;;;;49.10;24.20;;;4.70;99.90;;;;;;4426327;32;20168;-72
2022/02/16 02:40:10;;;;;;;49.00;24.93;;;4.70;99.90;;;;;;4425289;32;20179;-72
2022/02/16 02:42:42;;;;;;;54.67;25.17;;;4.70;99.90;;;;;;4424611;32;20198;-72
2022/02/16 02:45:10;;;;;;;49.23;24.27;;;4.60;99.90;;;;;;4425931;32;20430;-73
2022/02/16 02:47:37;;;;;;;54.13;25.10;;;4.70;99.90;;;;;;4425712;32;20181;-72
2022/02/16 02:50:06;;;;;;;51.33;25.07;;;4.70;99.90;;;;;;4426329;32;20254;-72
2022/02/16 02:52:36;;;;;;;53.60;26.13;;;4.60;99.90;;;;;;4426720;32;20197;-72
2022/02/16 02:55:08;;;;;;;55.33;26.87;;;4.60;99.90;;;;;;4425925;32;20175;-72
2022/02/16 02:57:37;;;;;;;58.83;26.70;;;4.60;99.90;;;;;;4440923;32;20373;-72
2022/02/16 03:00:06;;;;;;;50.90;26.47;;;4.50;99.90;;;;;;4439343;32;20194;-72
2022/02/16 03:02:34;;;;;;;52.13;26.83;;;4.60;99.90;;;;;;4439250;32;20147;-72
2022/02/16 03:05:01;;;;;;;56.53;26.87;;;4.50;99.90;;;;;;4424752;32;20601;-72
2022/02/16 03:07:28;;;;;;;51.03;24.77;;;4.50;99.90;;;;;;4439666;32;20156;-72
2022/02/16 03:09:55;;;;;;;50.70;26.07;;;4.50;99.90;;;;;;4425079;32;20230;-72
2022/02/16 03:12:22;;;;;;;53.60;26.60;;;4.50;99.90;;;;;;4440025;32;20169;-72
2022/02/16 03:14:52;;;;;;;50.63;26.27;;;4.40;99.90;;;;;;4426620;32;20200;-72
2022/02/16 03:17:19;;;;;;;56.00;26.10;;;4.40;99.90;;;;;;4426266;32;20212;-72
2022/02/16 03:19:46;;;;;;;47.23;24.43;;;4.40;99.90;;;;;;4425847;32;20260;-72
2022/02/16 03:22:13;;;;;;;50.93;25.63;;;4.40;99.90;;;;;;4440374;32;20151;-72
2022/02/16 03:24:40;;;;;;;53.53;26.17;;;4.40;99.90;;;;;;4441021;32;20166;-71
2022/02/16 03:27:07;;;;;;;49.03;24.93;;;4.40;99.90;;;;;;4425918;32;20233;-72
2022/02/16 03:29:34;;;;;;;50.43;25.60;;;4.40;99.90;;;;;;4425175;32;20194;-72
2022/02/16 03:32:01;;;;;;;57.80;25.90;;;4.40;99.90;;;;;;4439027;32;20436;-72
2022/02/16 03:34:28;;;;;;;51.43;25.63;;;4.40;99.90;;;;;;4426566;32;20193;-72
2022/02/16 03:36:57;;;;;;;49.13;24.87;;;4.30;99.90;;;;;;4439353;32;20176;-72
2022/02/16 03:39:24;;;;;;;55.27;26.40;;;4.30;99.90;;;;;;4425878;32;20197;-72
2022/02/16 03:41:51;;;;;;;50.63;25.83;;;4.30;99.90;;;;;;4426213;32;20190;-72
2022/02/16 03:44:19;;;;;;;51.33;26.30;;;4.30;99.90;;;;;;4439678;32;20151;-72
2022/02/16 03:46:47;;;;;;;50.57;25.50;;;4.30;99.90;;;;;;4425903;32;20215;-72
2022/02/16 03:49:14;;;;;;;52.23;26.23;;;4.20;99.90;;;;;;4424991;32;20201;-72
2022/02/16 03:51:40;;;;;;;50.73;25.23;;;4.30;99.90;;;;;;4425397;32;20443;-71
2022/02/16 03:54:07;;;;;;;55.60;26.40;;;4.20;99.90;;;;;;4426568;32;20197;-72
2022/02/16 03:56:34;;;;;;;51.43;25.67;;;4.20;99.90;;;;;;4428506;32;20238;-72
2022/02/16 03:59:01;;;;;;;51.27;25.30;;;4.20;99.90;;;;;;4441964;32;20166;-72
2022/02/16 04:01:28;;;;;;;54.37;25.93;;;4.20;99.90;;;;;;4427411;32;20195;-72
2022/02/16 04:03:56;;;;;;;51.23;24.80;;;4.20;99.90;;;;;;4441384;32;20146;-72
2022/02/16 04:06:23;;;;;;;53.00;25.73;;;4.10;99.90;;;;;;4427316;32;20190;-72
2022/02/16 04:08:50;;;;;;;50.90;25.13;;;4.10;99.90;;;;;;4426943;32;20202;-72
2022/02/16 04:11:19;;;;;;;50.70;25.17;;;4.10;99.90;;;;;;4427790;32;20247;-72
2022/02/16 04:13:47;;;;;;;52.73;25.50;;;4.10;99.90;;;;;;4428585;32;20220;-72
2022/02/16 04:16:15;;;;;;;52.97;26.10;;;4.10;99.90;;;;;;4428464;32;20185;-72
2022/02/16 04:18:41;;;;;;;55.60;26.00;;;4.00;99.90;;;;;;4428680;32;20214;-72
2022/02/16 04:21:08;;;;;;;53.93;25.97;;;4.00;99.90;;;;;;4441166;32;20405;-72
2022/02/16 04:23:35;;;;;;;51.30;25.50;;;4.00;99.90;;;;;;4441198;32;20144;-72
2022/02/16 04:26:02;;;;;;;53.33;25.67;;;4.00;99.90;;;;;;4426181;32;20202;-72
2022/02/16 04:28:29;;;;;;;54.63;26.03;;;4.00;99.90;;;;;;4425238;32;20171;-72
2022/02/16 04:30:56;;;;;;;52.83;25.13;;;4.00;99.90;;;;;;4424585;32;20228;-72
2022/02/16 04:33:27;;;;;;;53.30;26.20;;;4.00;99.90;;;;;;4424226;32;20211;-72
2022/02/16 04:35:54;;;;;;;52.77;26.17;;;3.90;99.90;;;;;;4424773;32;20184;-72
2022/02/16 04:38:21;;;;;;;56.63;25.50;;;3.90;99.90;;;;;;4424652;32;20183;-72
2022/02/16 04:40:48;;;;;;;52.10;26.10;;;3.90;99.90;;;;;;4425157;32;20171;-72
2022/02/16 04:43:15;;;;;;;55.03;26.97;;;3.90;99.90;;;;;;4426333;32;20151;-72
2022/02/16 04:45:42;;;;;;;58.13;28.03;;;3.80;99.90;;;;;;4426009;32;20230;-72
2022/02/16 04:48:09;;;;;;;60.63;28.03;;;3.80;99.90;;;;;;4423728;32;20229;-72
2022/02/16 04:50:36;;;;;;;59.83;27.50;;;3.70;99.90;;;;;;4425235;32;20327;-72
2022/02/16 04:53:04;;;;;;;58.53;27.97;;;3.60;99.90;;;;;;4425065;32;20196;-71
2022/02/16 04:55:32;;;;;;;58.30;28.13;;;3.60;99.90;;;;;;4423861;32;20175;-72
2022/02/16 04:57:59;;;;;;;56.67;28.07;;;3.60;99.90;;;;;;4424785;32;20226;-72
2022/02/16 05:00:26;;;;;;;59.67;28.80;;;3.60;99.90;;;;;;4423482;32;20248;-72
2022/02/16 05:02:53;;;;;;;59.23;28.20;;;3.50;99.90;;;;;;4425304;32;20176;-72
2022/02/16 05:05:20;;;;;;;61.40;27.90;;;3.40;99.90;;;;;;4423272;32;20198;-72
2022/02/16 05:07:47;;;;;;;59.97;28.63;;;3.40;99.90;;;;;;4424422;32;20176;-71
2022/02/16 05:10:14;;;;;;;61.23;28.50;;;3.40;99.90;;;;;;4423849;32;20202;-72
2022/02/16 05:12:41;;;;;;;56.23;28.40;;;3.40;99.90;;;;;;4425138;32;20216;-72
2022/02/16 05:15:08;;;;;;;56.33;28.80;;;3.50;99.90;;;;;;4425153;32;20190;-72
2022/02/16 05:17:35;;;;;;;63.23;29.30;;;3.40;99.90;;;;;;4426850;32;20391;-72
2022/02/16 05:20:03;;;;;;;62.13;29.13;;;3.40;99.90;;;;;;4424990;32;20214;-72
2022/02/16 05:22:31;;;;;;;59.70;29.53;;;3.40;99.90;;;;;;4423003;32;20563;-72
2022/02/16 05:24:58;;;;;;;60.03;29.40;;;3.40;99.90;;;;;;4425220;32;20186;-72
2022/02/16 05:27:25;;;;;;;62.30;29.53;;;3.40;99.90;;;;;;4424944;32;20195;-72
2022/02/16 05:29:52;;;;;;;61.50;28.37;;;3.30;99.90;;;;;;4424779;32;20478;-72
2022/02/16 05:32:19;;;;;;;57.63;28.73;;;3.40;99.90;;;;;;4424120;32;20198;-72
2022/02/16 05:34:46;;;;;;;56.33;28.27;;;3.40;99.90;;;;;;4425175;32;20557;-71
2022/02/16 05:37:13;;;;;;;64.33;29.30;;;3.40;99.90;;;;;;4425950;32;20170;-71
2022/02/16 05:39:40;;;;;;;58.97;29.47;;;3.40;99.90;;;;;;4423320;32;20229;-71
2022/02/16 05:42:08;;;;;;;65.13;29.50;;;3.40;99.90;;;;;;4425038;32;20163;-71
2022/02/16 05:44:35;;;;;;;61.60;29.37;;;3.40;99.90;;;;;;4424862;32;20178;-72
2022/02/16 05:47:03;;;;;;;64.33;29.47;;;3.50;99.90;;;;;;4423333;32;20231;-72
2022/02/16 05:49:29;;;;;;;59.97;28.63;;;3.50;99.90;;;;;;4425128;32;20233;-72
2022/02/16 05:51:56;;;;;;;61.83;29.53;;;3.40;99.90;;;;;;4423593;32;20233;-71
2022/02/16 05:54:23;;;;;;;67.40;30.20;;;3.40;99.90;;;;;;4423599;32;20246;-72
2022/02/16 05:56:50;;;;;;;63.43;29.13;;;3.40;99.90;;;;;;4425990;32;20178;-71
2022/02/16 05:59:17;;;;;;;64.03;30.43;;;3.40;99.90;;;;;;4423431;32;20231;-71
2022/02/16 06:01:44;;;;;;;65.53;30.50;;;3.40;99.90;;;;;;4423982;32;20214;-72
2022/02/16 06:04:15;;;;;;;67.63;30.87;;;3.40;99.90;;;;;;4426123;32;20190;-72
2022/02/16 06:06:43;;;;;;;64.53;30.07;;;3.30;99.90;;;;;;4423910;32;20171;-72
2022/02/16 06:09:10;;;;;;;69.57;30.53;;;3.30;99.90;;;;;;4421891;32;20416;-72
2022/02/16 06:11:37;;;;;;;65.40;31.13;;;3.30;99.90;;;;;;4423785;32;20202;-72
2022/02/16 06:14:07;;;;;;;62.87;30.47;;;3.40;99.90;;;;;;4421956;32;20207;-72
2022/02/16 06:16:34;;;;;;;65.00;31.60;;;3.40;99.90;;;;;;4411947;32;20163;-71
2022/02/16 06:19:01;;;;;;;65.50;30.43;;;3.40;99.90;;;;;;4423043;32;20557;-71
2022/02/16 06:21:28;;;;;;;60.23;29.73;;;3.40;99.90;;;;;;4422026;32;20186;-71
2022/02/16 06:23:55;;;;;;;59.43;29.67;;;3.40;99.90;;;;;;4422123;32;20207;-72
2022/02/16 06:26:21;;;;;;;64.80;30.53;;;3.40;99.90;;;;;;4424829;32;20147;-71
2022/02/16 06:28:49;;;;;;;62.07;29.90;;;3.50;99.90;;;;;;4423591;32;20247;-72
2022/02/16 06:31:16;;;;;;;65.00;30.37;;;3.50;99.90;;;;;;4423542;32;20208;-72
2022/02/16 06:33:44;;;;;;;63.03;30.47;;;3.60;99.90;;;;;;4422437;32;20223;-72
2022/02/16 06:36:10;;;;;;;70.03;31.43;;;3.60;99.90;;;;;;4421800;32;20215;-72
2022/02/16 06:38:38;;;;;;;67.13;30.83;;;3.60;99.90;;;;;;4421946;32;20438;-71
2022/02/16 06:41:05;;;;;;;66.00;31.23;;;3.60;99.90;;;;;;4423139;32;20175;-71
2022/02/16 06:43:32;;;;;;;64.07;31.23;;;3.70;99.90;;;;;;4422191;32;20176;-71
2022/02/16 06:45:58;;;;;;;63.37;30.50;;;3.70;99.90;;;;;;4424714;32;20489;-71
2022/02/16 06:48:25;;;;;;;64.03;31.83;;;3.70;99.90;;;;;;4423420;32;20492;-71
2022/02/16 06:50:53;;;;;;;69.97;31.63;;;3.70;99.90;;;;;;4424253;32;20427;-71
2022/02/16 06:53:20;;;;;;;65.27;31.60;;;3.70;99.90;;;;;;4423370;32;20254;-71
2022/02/16 06:55:48;;;;;;;66.13;31.60;;;3.80;99.90;;;;;;4422151;32;20231;-71
2022/02/16 06:58:16;;;;;;;66.57;31.50;;;3.80;99.90;;;;;;4423820;32;20449;-71
2022/02/16 07:00:43;;;;;;;67.50;31.70;;;3.80;99.90;;;;;;4421713;32;20201;-71
2022/02/16 07:03:10;;;;;;;66.40;31.80;;;3.90;99.90;;;;;;4423345;32;20183;-71
2022/02/16 07:05:37;;;;;;;69.23;31.77;;;4.00;99.90;;;;;;4422168;32;20230;-71
2022/02/16 07:08:04;;;;;;;64.60;31.47;;;4.00;99.90;;;;;;4423155;32;20187;-71
2022/02/16 07:10:31;;;;;;;68.67;31.93;;;4.10;99.90;;;;;;4422721;32;20580;-71
2022/02/16 07:12:58;;;;;;;67.90;30.37;;;4.10;99.90;;;;;;4423901;32;20149;-71
2022/02/16 07:15:26;;;;;;;63.70;31.37;;;4.30;99.90;;;;;;4423963;32;20164;-71
2022/02/16 07:17:54;;;;;;;61.77;30.50;;;4.40;99.90;;;;;;4422168;32;20447;-71
2022/02/16 07:20:28;;;;;;;65.93;30.87;;;4.40;99.90;;;;;;4421387;32;20226;-71
2022/02/16 07:22:55;;;;;;;64.07;31.20;;;4.40;99.90;;;;;;4422404;32;20547;-71
2022/02/16 07:25:24;;;;;;;67.37;31.07;;;4.50;99.90;;;;;;4422780;32;20177;-71
2022/02/16 07:28:11;;;;;;;65.73;29.87;;;4.60;99.90;;;;;;4422407;32;20175;-71
2022/02/16 07:30:38;;;;;;;67.33;30.00;;;4.60;99.90;;;;;;4426758;32;20193;-71
2022/02/16 07:33:05;;;;;;;66.67;31.03;;;4.70;99.90;;;;;;4426275;32;20183;-73
2022/02/16 07:35:33;;;;;;;65.03;31.17;;;4.70;99.90;;;;;;4426160;32;20232;-71
2022/02/16 07:38:00;;;;;;;58.43;29.53;;;4.70;99.90;;;;;;4413593;32;20191;-71
2022/02/16 07:40:27;;;;;;;63.00;29.80;;;4.80;99.90;;;;;;4426363;32;20259;-71
2022/02/16 07:42:54;;;;;;;58.47;29.50;;;4.80;99.90;;;;;;4424923;32;20175;-71
2022/02/16 07:45:21;;;;;;;65.57;31.00;;;4.90;99.90;;;;;;4426417;32;20567;-71
2022/02/16 07:47:48;;;;;;;59.00;28.77;;;4.90;99.90;;;;;;4424934;32;20198;-72
2022/02/16 07:50:15;;;;;;;60.40;30.13;;;5.00;99.90;;;;;;4424770;32;20222;-71
2022/02/16 07:52:41;;;;;;;62.93;29.63;;;5.00;99.90;;;;;;4424997;32;20417;-70
2022/02/16 07:55:08;;;;;;;67.17;29.43;;;5.10;99.90;;;;;;4426229;32;20159;-71
2022/02/16 07:57:36;;;;;;;63.23;29.83;;;5.30;99.90;;;;;;4426674;32;20137;-71
2022/02/16 08:00:04;;;;;;;64.43;30.00;;;5.30;99.90;;;;;;4426518;32;20189;-71
2022/02/16 08:02:33;;;;;;;62.17;29.27;;;5.40;99.90;;;;;;4426819;32;20427;-72
2022/02/16 08:05:06;;;;;;;60.73;29.53;;;5.40;99.90;;;;;;4426558;32;20168;-71
2022/02/16 08:07:36;;;;;;;63.50;28.93;;;5.50;99.90;;;;;;4425195;32;20143;-71
2022/02/16 08:10:04;;;;;;;61.73;28.97;;;5.50;99.90;;;;;;4425744;32;20195;-71
2022/02/16 08:12:31;;;;;;;62.60;28.73;;;5.60;99.90;;;;;;4426483;32;20193;-71
2022/02/16 08:14:58;;;;;;;60.70;29.23;;;5.70;99.90;;;;;;4426494;32;20164;-71
2022/02/16 08:17:26;;;;;;;58.70;28.00;;;5.80;99.90;;;;;;4424266;32;20169;-71
2022/02/16 08:19:53;;;;;;;54.67;26.87;;;6.00;99.90;;;;;;4425519;32;20239;-71
2022/02/16 08:22:20;;;;;;;55.20;26.53;;;6.40;99.90;;;;;;4424982;32;20178;-71
2022/02/16 08:24:47;;;;;;;57.10;27.80;;;6.80;99.90;;;;;;4425160;32;20178;-71
2022/02/16 08:27:13;;;;;;;52.40;27.03;;;7.00;99.90;;;;;;4425929;32;20512;-71
2022/02/16 08:29:40;;;;;;;54.67;26.00;;;7.30;99.90;;;;;;4425579;32;20181;-71
2022/02/16 08:32:07;;;;;;;56.27;25.83;;;7.50;99.90;;;;;;4424137;32;20709;-69
2022/02/16 08:34:34;;;;;;;52.47;25.27;;;7.70;99.90;;;;;;4424042;32;20194;-70
2022/02/16 08:37:01;;;;;;;49.60;24.43;;;7.80;99.90;;;;;;4424464;32;20170;-70
2022/02/16 08:39:28;;;;;;;48.20;24.03;;;8.00;99.90;;;;;;4424461;32;20336;-68
2022/02/16 08:41:56;;;;;;;47.60;23.70;;;8.20;99.90;;;;;;4424177;32;20193;-68
2022/02/16 08:44:23;;;;;;;45.10;22.27;;;8.30;99.90;;;;;;4424552;32;20174;-69
2022/02/16 08:46:51;;;;;;;40.30;21.00;;;8.50;99.90;;;;;;4426027;32;20201;-68
2022/02/16 08:49:18;;;;;;;40.03;20.47;;;8.70;99.90;;;;;;4424162;32;20221;-70
2022/02/16 08:51:45;;;;;;;38.33;20.50;;;8.90;99.90;;;;;;4424166;32;20221;-68
2022/02/16 08:54:12;;;;;;;38.50;19.43;;;9.00;99.90;;;;;;4423578;32;20201;-69
2022/02/16 08:56:41;;;;;;;37.83;19.50;;;9.00;99.90;;;;;;4423958;32;20219;-70
2022/02/16 08:59:09;;;;;;;36.43;18.73;;;9.20;99.90;;;;;;4423615;32;20271;-69
2022/02/16 09:01:35;;;;;;;36.83;18.27;;;9.30;99.90;;;;;;4425471;32;20412;-70
2022/02/16 09:04:04;;;;;;;36.90;18.30;;;9.50;99.90;;;;;;4426215;32;20527;-70
2022/02/16 09:06:34;;;;;;;35.97;19.00;;;9.50;99.90;;;;;;4424432;32;20175;-70
2022/02/16 09:09:02;;;;;;;31.63;17.53;;;9.60;99.90;;;;;;4423569;32;20209;-69
2022/02/16 09:11:29;;;;;;;34.23;17.63;;;9.80;99.90;;;;;;4423785;32;20187;-70
2022/02/16 09:13:58;;;;;;;35.67;17.57;;;9.70;99.90;;;;;;4424991;32;20197;-70
2022/02/16 09:16:25;;;;;;;36.23;17.30;;;9.80;99.90;;;;;;4423480;32;20229;-70
2022/02/16 09:18:52;;;;;;;34.93;17.37;;;10.00;99.90;;;;;;4425197;32;20201;-70
2022/02/16 09:21:20;;;;;;;32.53;17.23;;;10.00;99.90;;;;;;4424708;32;20413;-70
2022/02/16 09:23:49;;;;;;;28.90;15.93;;;10.20;99.90;;;;;;4423471;32;20521;-71
2022/02/16 09:26:16;;;;;;;32.90;17.17;;;10.20;99.90;;;;;;4424077;32;20517;-72
2022/02/16 09:28:43;;;;;;;32.50;16.13;;;10.30;99.90;;;;;;4425245;32;20174;-72
2022/02/16 09:31:10;;;;;;;28.53;15.00;;;10.30;99.90;;;;;;4435804;32;20183;-71
2022/02/16 09:33:37;;;;;;;28.40;14.60;;;10.30;99.90;;;;;;4424044;32;20190;-70
2022/02/16 09:36:05;;;;;;;29.17;15.17;;;10.30;99.90;;;;;;4424279;32;20201;-71
2022/02/16 09:38:32;;;;;;;28.07;14.27;;;10.30;99.90;;;;;;4423747;32;20186;-70
2022/02/16 09:41:00;;;;;;;30.03;14.57;;;10.60;99.90;;;;;;4424818;32;20516;-71
2022/02/16 09:43:27;;;;;;;26.63;14.23;;;10.50;99.90;;;;;;4423419;32;20205;-69
2022/02/16 09:45:55;;;;;;;27.23;13.87;;;10.40;99.90;;;;;;4425404;32;20429;-70
2022/02/16 09:48:24;;;;;;;25.77;13.80;;;10.60;99.90;;;;;;4422568;32;20585;-70
2022/02/16 09:50:53;;;;;;;28.07;14.13;;;10.70;99.90;;;;;;4423315;32;20209;-71
2022/02/16 09:53:30;;;;;;;25.77;13.23;;;10.80;99.90;;;;;;4422810;32;20174;-69
2022/02/16 09:56:00;;;;;;;27.27;14.40;;;10.90;99.90;;;;;;4422804;32;20202;-69
2022/02/16 09:58:27;;;;;;;26.50;13.07;;;11.00;99.90;;;;;;4423786;32;20186;-66
2022/02/16 10:01:06;;;;;;;27.23;13.77;;;11.10;99.90;;;;;;4436304;32;20205;-68
2022/02/16 10:03:34;;;;;;;29.20;13.33;;;11.30;99.90;;;;;;4424154;32;20208;-70
2022/02/16 10:06:07;;;;;;;30.47;13.47;;;11.40;99.90;;;;;;4423010;32;20514;-69
2022/02/16 10:08:48;;;;;;;23.17;12.10;;;11.50;99.90;;;;;;4424252;32;20183;-70
2022/02/16 10:11:15;;;;;;;25.90;11.27;;;11.80;99.90;;;;;;4423643;32;20170;-69
2022/02/16 10:13:43;;;;;;;20.00;10.93;;;11.90;99.40;;;;;;4424558;32;20197;-67
2022/02/16 10:16:10;;;;;;;21.00;10.83;;;11.50;98.80;;;;;;4437020;32;20216;-67
2022/02/16 10:18:57;;;;;;;21.77;10.77;;;11.50;98.70;;;;;;4423919;32;20178;-67
2022/02/16 10:21:24;;;;;;;19.50;10.30;;;11.50;99.00;;;;;;4423516;32;20213;-68
2022/02/16 10:23:52;;;;;;;21.17;10.50;;;11.80;98.90;;;;;;4424160;32;20359;-72
2022/02/16 10:26:20;;;;;;;21.00;10.80;;;11.90;98.40;;;;;;4424022;32;20179;-67
2022/02/16 10:28:52;;;;;;;21.13;11.10;;;12.20;97.20;;;;;;4423981;32;20233;-69
2022/02/16 10:31:21;;;;;;;21.70;10.63;;;12.20;97.40;;;;;;4423610;32;20475;-67
2022/02/16 10:33:55;;;;;;;21.13;10.00;;;12.60;95.30;;;;;;4423303;32;20445;-68
2022/02/16 10:36:23;;;;;;;18.07;10.07;;;13.00;91.50;;;;;;4422287;32;20561;-68
2022/02/16 10:39:02;;;;;;;18.20;10.10;;;13.00;90.80;;;;;;4422709;32;20193;-68
2022/02/16 10:41:54;;;;;;;19.43;9.73;;;12.90;91.40;;;;;;4426340;32;20204;-69
2022/02/16 10:44:26;;;;;;;17.27;8.83;;;12.90;87.70;;;;;;4422379;32;20175;-69
2022/02/16 10:47:12;;;;;;;16.20;8.73;;;12.40;90.00;;;;;;4410480;32;20249;-67
2022/02/16 10:49:40;;;;;;;16.90;8.97;;;12.40;91.20;;;;;;4422712;32;20264;-69
2022/02/16 10:52:16;;;;;;;17.33;8.60;;;12.60;88.80;;;;;;4422948;32;20196;-69
2022/02/16 10:54:59;;;;;;;15.57;8.30;;;12.70;85.70;;;;;;4424588;32;20178;-69
2022/02/16 10:57:27;;;;;;;16.43;9.40;;;13.20;84.30;;;;;;4423878;32;20163;-70
2022/02/16 10:59:54;;;;;;;16.70;8.43;;;13.10;83.60;;;;;;4422025;32;20186;-68
2022/02/16 11:02:21;;;;;;;14.30;7.93;;;13.30;81.90;;;;;;4423714;32;20524;-69
2022/02/16 11:04:49;;;;;;;14.60;8.07;;;13.00;82.90;;;;;;4426869;32;20233;-70
2022/02/16 11:07:22;;;;;;;13.37;8.00;;;12.70;83.90;;;;;;4425365;32;20162;-69
2022/02/16 11:09:52;;;;;;;17.23;8.40;;;12.70;85.80;;;;;;4426528;32;20263;-69
2022/02/16 11:12:19;;;;;;;17.67;7.57;;;13.20;83.20;;;;;;4426624;32;20174;-67
2022/02/16 11:14:46;;;;;;;17.67;8.10;;;13.40;81.00;;;;;;4425321;32;20198;-68
2022/02/16 11:17:14;;;;;;;14.70;7.63;;;13.60;80.50;;;;;;4425933;32;20205;-69
2022/02/16 11:19:43;;;;;;;13.77;7.30;;;13.80;78.70;;;;;;4426601;32;20193;-69
2022/02/16 11:22:11;;;;;;;13.13;6.70;;;13.60;76.40;;;;;;4425787;32;20232;-69
2022/02/16 11:24:43;;;;;;;12.53;7.23;;;13.40;76.60;;;;;;4427133;32;20480;-70
2022/02/16 11:27:38;;;;;;;15.53;7.17;;;13.40;78.00;;;;;;4427954;32;20507;-69
2022/02/16 11:30:08;;;;;;;12.37;7.53;;;13.40;77.90;;;;;;4425225;32;20189;-70
2022/02/16 11:32:36;;;;;;;16.73;8.10;;;13.00;79.20;;;;;;4425327;32;20178;-70
2022/02/16 11:35:26;;;;;;;14.27;7.97;;;12.60;82.00;;;;;;4426603;32;20194;-68
2022/02/16 11:38:02;;;;;;;14.83;7.57;;;12.60;81.20;;;;;;4427554;32;20166;-68
2022/02/16 11:40:56;;;;;;;15.13;7.90;;;12.60;82.50;;;;;;4426159;32;20268;-69
2022/02/16 11:43:53;;;;;;;16.57;7.30;;;13.00;80.70;;;;;;4428703;32;20266;-69
2022/02/16 11:46:43;;;;;;;11.93;6.80;;;12.70;82.00;;;;;;4427627;32;20178;-70
2022/02/16 11:49:29;;;;;;;14.13;7.40;;;12.40;81.60;;;;;;4427789;32;20175;-68
2022/02/16 11:51:57;;;;;;;14.00;7.20;;;12.00;83.60;;;;;;4428088;32;20218;-68
2022/02/16 11:54:40;;;;;;;12.53;6.93;;;11.70;86.20;;;;;;4442527;32;20158;-70
2022/02/16 11:57:29;;;;;;;12.53;6.90;;;11.50;89.50;;;;;;4427528;32;20211;-70
2022/02/16 12:00:20;;;;;;;12.90;6.70;;;12.20;86.90;;;;;;4429114;32;20250;-70
2022/02/16 12:03:02;;;;;;;13.00;6.90;;;13.20;83.30;;;;;;4427806;32;20194;-69
2022/02/16 12:05:55;;;;;;;12.23;6.67;;;13.50;77.00;;;;;;4428776;32;20209;-70
2022/02/16 12:08:27;;;;;;;16.30;7.00;;;13.40;76.30;;;;;;4428750;32;20491;-70
2022/02/16 12:11:03;;;;;;;12.50;7.23;;;13.00;78.00;;;;;;4428195;32;20200;-69
2022/02/16 12:13:35;;;;;;;12.97;7.20;;;12.70;81.80;;;;;;4425504;32;20225;-70
2022/02/16 12:16:19;;;;;;;12.77;7.57;;;13.20;80.10;;;;;;4424705;32;20209;-69
2022/02/16 12:18:49;;;;;;;15.20;7.40;;;13.90;76.20;;;;;;4424318;32;20182;-71
2022/02/16 12:21:23;;;;;;;12.93;6.60;;;14.20;74.30;;;;;;4424615;32;20177;-70
2022/02/16 12:23:59;;;;;;;10.80;6.50;;;14.50;74.20;;;;;;4424195;32;20228;-70
2022/02/16 12:26:33;;;;;;;11.33;5.90;;;13.90;72.90;;;;;;4425106;32;20182;-70
2022/02/16 12:29:03;;;;;;;12.37;5.97;;;13.40;76.10;;;;;;4427195;32;20143;-70
2022/02/16 12:31:32;;;;;;;9.90;5.73;;;13.00;79.30;;;;;;4424629;32;20186;-70
2022/02/16 12:34:01;;;;;;;8.87;5.40;;;12.90;79.30;;;;;;4426935;32;20201;-69
2022/02/16 12:36:29;;;;;;;10.70;5.77;;;13.50;79.90;;;;;;4425817;32;20548;-69
2022/02/16 12:38:58;;;;;;;9.03;5.47;;;14.50;75.40;;;;;;4424253;32;20201;-68
2022/02/16 12:41:26;;;;;;;9.83;5.50;;;14.50;73.10;;;;;;4424186;32;20179;-68
2022/02/16 12:43:59;;;;;;;11.13;5.40;;;14.80;70.20;;;;;;4424595;32;20198;-68